createdAt,value
2022-09-03T00:00:28.663Z,99683.78
2022-09-03T00:03:02.307Z,99686.34
2022-09-03T00:05:37.532Z,99692.38
2022-09-03T00:08:10.843Z,99694.06
2022-09-03T00:10:52.323Z,99694.94
2022-09-03T00:13:24.907Z,99700.09
2022-09-03T00:15:54.891Z,99710.44
2022-09-03T00:18:23.737Z,99716.50
2022-09-03T00:20:58.816Z,99726.91
2022-09-03T00:23:28.084Z,99725.16
2022-09-03T00:25:57.926Z,99723.44
2022-09-03T00:28:29.989Z,99724.34
2022-09-03T00:31:06.945Z,99727.75
2022-09-03T00:33:34.477Z,99727.72
2022-09-03T00:36:17.212Z,99730.28
2022-09-03T00:38:45.150Z,99733.69
2022-09-03T00:41:31.606Z,99737.09
2022-09-03T00:44:13.964Z,99732.72
2022-09-03T00:46:44.117Z,99744.84
2022-09-03T00:49:27.620Z,99743.06
2022-09-03T00:52:00.854Z,99743.94
2022-09-03T00:54:49.820Z,99743.00
2022-09-03T00:57:26.437Z,99749.94
2022-09-03T01:00:01.805Z,99749.84
2022-09-03T01:02:48.153Z,99744.63
2022-09-03T01:05:27.460Z,99742.84
2022-09-03T01:08:03.911Z,99745.41
2022-09-03T01:10:39.789Z,99742.81
2022-09-03T01:13:14.713Z,99747.13
2022-09-03T01:15:57.086Z,99749.66
2022-09-03T01:18:30.996Z,99753.97
2022-09-03T01:21:10.090Z,99751.38
2022-09-03T01:23:44.204Z,99758.25
2022-09-03T01:26:29.837Z,99748.75
2022-09-03T01:28:56.912Z,99746.16
2022-09-03T01:31:26.932Z,99750.44
2022-09-03T01:34:06.134Z,99754.75
2022-09-03T01:36:39.289Z,99762.53
2022-09-03T01:39:08.438Z,99766.88
2022-09-03T01:42:03.521Z,99769.44
2022-09-03T01:44:40.423Z,99771.19
2022-09-03T01:47:35.103Z,99769.41
2022-09-03T01:50:05.119Z,99778.84
2022-09-03T01:52:32.082Z,99779.72
2022-09-03T01:55:21.321Z,99779.72
2022-09-03T01:57:56.237Z,99781.41
2022-09-03T02:00:24.199Z,99786.53
2022-09-03T02:02:51.865Z,99787.38
2022-09-03T02:05:24.306Z,99793.41
2022-09-03T02:07:55.028Z,99796.88
2022-09-03T02:10:25.521Z,99796.84
2022-09-03T02:12:54.559Z,99798.53
2022-09-03T02:15:22.486Z,99806.31
2022-09-03T02:17:51.594Z,99801.06
2022-09-03T02:20:23.183Z,99806.22
2022-09-03T02:22:51.128Z,99807.97
2022-09-03T02:25:18.343Z,99809.69
2022-09-03T02:27:45.936Z,99815.75
2022-09-03T02:30:13.062Z,99815.78
2022-09-03T02:32:40.137Z,99818.44
2022-09-03T02:35:07.427Z,99822.81
2022-09-03T02:37:35.149Z,99820.28
2022-09-03T02:40:05.845Z,99816.03
2022-09-03T02:42:33.111Z,99823.94
2022-09-03T02:45:18.869Z,99818.88
2022-09-03T02:47:48.027Z,99826.00
2022-09-03T02:50:16.290Z,99825.25
2022-09-03T02:52:43.297Z,99828.88
2022-09-03T02:55:10.202Z,99825.56
2022-09-03T02:57:37.510Z,99828.34
2022-09-03T03:00:05.492Z,99822.50
2022-09-03T03:02:32.609Z,99814.97
2022-09-03T03:04:59.615Z,99827.38
2022-09-03T03:07:27.968Z,99822.44
2022-09-03T03:09:54.898Z,99821.75
2022-09-03T03:12:22.254Z,99827.09
2022-09-03T03:14:49.233Z,99829.78
2022-09-03T03:17:16.230Z,99833.16
2022-09-03T03:19:43.131Z,99831.16
2022-09-03T03:22:10.334Z,99831.56
2022-09-03T03:24:38.204Z,99829.78
2022-09-03T03:27:07.376Z,99829.66
2022-09-03T03:29:34.537Z,99843.31
2022-09-03T03:32:01.542Z,99839.28
2022-09-03T03:34:28.574Z,99836.97
2022-09-03T03:36:56.674Z,99840.00
2022-09-03T03:39:23.606Z,99833.59
2022-09-03T03:41:52.602Z,99847.91
2022-09-03T03:44:20.408Z,99846.28
2022-09-03T03:46:47.419Z,99843.66
2022-09-03T03:49:14.436Z,99838.13
2022-09-03T03:51:41.518Z,99853.22
2022-09-03T03:54:08.422Z,99841.13
2022-09-03T03:56:35.599Z,99839.31
2022-09-03T03:59:02.996Z,99844.31
2022-09-03T04:01:30.503Z,99847.81
2022-09-03T04:03:59.042Z,99845.47
2022-09-03T04:06:26.794Z,99855.44
2022-09-03T04:08:53.853Z,99849.88
2022-09-03T04:11:22.217Z,99846.56
2022-09-03T04:13:49.888Z,99850.09
2022-09-03T04:16:18.677Z,99855.72
2022-09-03T04:18:46.123Z,99855.25
2022-09-03T04:21:23.580Z,99857.69
2022-09-03T04:23:51.577Z,99855.44
2022-09-03T04:26:20.618Z,99861.41
2022-09-03T04:28:48.505Z,99861.66
2022-09-03T04:31:16.441Z,99862.50
2022-09-03T04:33:43.872Z,99861.69
2022-09-03T04:36:15.223Z,99866.84
2022-09-03T04:38:42.986Z,99874.41
2022-09-03T04:41:11.525Z,99870.50
2022-09-03T04:43:39.079Z,99869.28
2022-09-03T04:46:06.852Z,99872.28
2022-09-03T04:48:35.081Z,99874.06
2022-09-03T04:51:09.108Z,99864.09
2022-09-03T04:53:40.320Z,99870.06
2022-09-03T04:56:21.000Z,99862.91
2022-09-03T04:58:49.198Z,99865.34
2022-09-03T05:01:19.703Z,99870.16
2022-09-03T05:03:47.169Z,99861.81
2022-09-03T05:06:17.337Z,99866.38
2022-09-03T05:08:48.356Z,99862.06
2022-09-03T05:11:16.370Z,99858.75
2022-09-03T05:13:44.095Z,99864.25
2022-09-03T05:16:11.777Z,99862.88
2022-09-03T05:18:40.045Z,99865.16
2022-09-03T05:21:09.137Z,99862.53
2022-09-03T05:23:37.924Z,99864.72
2022-09-03T05:26:10.989Z,99863.06
2022-09-03T05:28:39.526Z,99855.13
2022-09-03T05:31:06.518Z,99866.81
2022-09-03T05:33:34.953Z,99869.66
2022-09-03T05:36:06.167Z,99868.31
2022-09-03T05:38:33.556Z,99867.22
2022-09-03T05:41:04.870Z,99873.19
2022-09-03T05:43:32.648Z,99874.94
2022-09-03T05:46:04.525Z,99876.00
2022-09-03T05:48:32.261Z,99874.56
2022-09-03T05:51:01.157Z,99876.50
2022-09-03T05:53:28.857Z,99872.88
2022-09-03T05:55:57.509Z,99880.38
2022-09-03T05:58:25.539Z,99884.75
2022-09-03T06:00:52.603Z,99888.78
2022-09-03T06:03:20.072Z,99884.59
2022-09-03T06:05:54.818Z,99892.41
2022-09-03T06:08:22.350Z,99886.75
2022-09-03T06:10:49.238Z,99890.59
2022-09-03T06:13:16.291Z,99885.28
2022-09-03T06:15:43.223Z,99885.06
2022-09-03T06:18:10.183Z,99880.13
2022-09-03T06:20:37.493Z,99893.06
2022-09-03T06:23:04.664Z,99887.47
2022-09-03T06:25:32.259Z,99894.31
2022-09-03T06:27:59.395Z,99893.94
2022-09-03T06:30:27.456Z,99893.59
2022-09-03T06:32:54.429Z,99896.16
2022-09-03T06:35:21.518Z,99899.78
2022-09-03T06:37:49.090Z,99891.59
2022-09-03T06:40:22.627Z,99901.75
2022-09-03T06:42:59.481Z,99893.41
2022-09-03T06:45:26.567Z,99901.59
2022-09-03T06:47:54.199Z,99900.34
2022-09-03T06:50:21.536Z,99904.47
2022-09-03T06:52:57.384Z,99898.91
2022-09-03T06:55:24.420Z,99913.56
2022-09-03T06:57:56.417Z,99905.34
2022-09-03T07:00:24.394Z,99911.34
2022-09-03T07:02:58.708Z,99909.06
2022-09-03T07:05:28.913Z,99913.75
2022-09-03T07:07:55.791Z,99917.78
2022-09-03T07:10:22.893Z,99916.56
2022-09-03T07:12:50.306Z,99924.78
2022-09-03T07:15:17.518Z,99922.59
2022-09-03T07:17:44.898Z,99924.16
2022-09-03T07:20:11.792Z,99927.75
2022-09-03T07:22:38.814Z,99923.09
2022-09-03T07:25:05.991Z,99922.09
2022-09-03T07:27:35.387Z,99927.13
2022-09-03T07:30:03.658Z,99920.41
2022-09-03T07:32:30.974Z,99924.28
2022-09-03T07:34:59.000Z,99927.06
2022-09-03T07:37:26.547Z,99929.66
2022-09-03T07:39:54.330Z,99930.25
2022-09-03T07:42:21.440Z,99929.56
2022-09-03T07:44:48.347Z,99922.53
2022-09-03T07:47:19.919Z,99923.41
2022-09-03T07:49:53.948Z,99924.75
2022-09-03T07:52:23.794Z,99922.47
2022-09-03T07:54:56.934Z,99920.53
2022-09-03T07:57:23.955Z,99919.56
2022-09-03T07:59:51.405Z,99919.31
2022-09-03T08:02:18.407Z,99913.66
2022-09-03T08:04:45.670Z,99916.06
2022-09-03T08:07:12.614Z,99912.44
2022-09-03T08:09:39.666Z,99905.19
2022-09-03T08:12:06.742Z,99919.00
2022-09-03T08:14:33.729Z,99911.44
2022-09-03T08:17:00.682Z,99916.22
2022-09-03T08:19:27.545Z,99912.91
2022-09-03T08:21:54.433Z,99914.81
2022-09-03T08:24:22.242Z,99915.72
2022-09-03T08:26:52.056Z,99916.47
2022-09-03T08:29:20.363Z,99908.25
2022-09-03T08:31:47.424Z,99914.97
2022-09-03T08:34:14.966Z,99906.53
2022-09-03T08:36:42.145Z,99921.56
2022-09-03T08:39:10.507Z,99912.44
2022-09-03T08:41:37.802Z,99907.28
2022-09-03T08:44:05.951Z,99899.16
2022-09-03T08:46:55.824Z,99898.88
2022-09-03T08:49:43.011Z,99902.31
2022-09-03T08:52:19.120Z,99909.69
2022-09-03T08:54:49.627Z,99903.88
2022-09-03T08:57:17.638Z,99904.00
2022-09-03T08:59:55.297Z,99905.22
2022-09-03T09:02:47.891Z,99908.88
2022-09-03T09:05:19.487Z,99902.66
2022-09-03T09:07:49.430Z,99903.28
2022-09-03T09:10:24.418Z,99904.63
2022-09-03T09:13:10.505Z,99901.19
2022-09-03T09:16:13.483Z,99901.84
2022-09-03T09:18:46.501Z,99902.75
2022-09-03T09:21:27.395Z,99900.56
2022-09-03T09:23:59.901Z,99906.06
2022-09-03T09:26:26.830Z,99891.22
2022-09-03T09:29:00.864Z,99896.84
2022-09-03T09:31:33.443Z,99898.94
2022-09-03T09:34:09.463Z,99896.75
2022-09-03T09:36:42.433Z,99893.69
2022-09-03T09:39:11.249Z,99906.75
2022-09-03T09:41:42.168Z,99902.63
2022-09-03T09:44:09.315Z,99906.06
2022-09-03T09:46:39.451Z,99893.91
2022-09-03T09:49:46.217Z,99881.22
2022-09-03T09:52:14.862Z,99885.41
2022-09-03T09:54:42.772Z,99892.94
2022-09-03T09:57:20.602Z,99893.38
2022-09-03T09:59:49.813Z,99885.88
2022-09-03T10:02:27.556Z,99889.41
2022-09-03T10:05:02.057Z,99884.81
2022-09-03T10:07:32.278Z,99884.03
2022-09-03T10:10:02.517Z,99882.41
2022-09-03T10:12:35.646Z,99881.06
2022-09-03T10:15:05.762Z,99880.06
2022-09-03T10:17:37.368Z,99877.44
2022-09-03T10:20:27.782Z,99873.88
2022-09-03T10:22:57.653Z,99885.50
2022-09-03T10:25:27.177Z,99877.78
2022-09-03T10:27:55.332Z,99875.59
2022-09-03T10:30:24.121Z,99883.28
2022-09-03T10:33:17.375Z,99890.50
2022-09-03T10:35:47.194Z,99880.75
2022-09-03T10:38:14.112Z,99883.56
2022-09-03T10:41:10.554Z,99883.03
2022-09-03T10:43:55.888Z,99891.31
2022-09-03T10:46:26.879Z,99888.97
2022-09-03T10:49:13.608Z,99893.03
2022-09-03T10:51:50.541Z,99883.41
2022-09-03T10:54:29.590Z,99888.34
2022-09-03T10:57:15.488Z,99883.81
2022-09-03T10:59:48.537Z,99891.53
2022-09-03T11:02:15.570Z,99884.38
2022-09-03T11:04:55.141Z,99883.75
2022-09-03T11:07:24.315Z,99887.59
2022-09-03T11:09:51.137Z,99882.94
2022-09-03T11:12:25.535Z,99888.25
2022-09-03T11:15:05.525Z,99877.31
2022-09-03T11:17:44.049Z,99869.16
2022-09-03T11:20:20.704Z,99869.00
2022-09-03T11:22:49.252Z,99866.66
2022-09-03T11:25:18.310Z,99863.25
2022-09-03T11:27:56.739Z,99867.34
2022-09-03T11:30:25.475Z,99867.75
2022-09-03T11:32:55.727Z,99854.78
2022-09-03T11:35:37.690Z,99841.91
2022-09-03T11:38:06.541Z,99860.50
2022-09-03T11:41:00.499Z,99864.44
2022-09-03T11:43:29.744Z,99855.91
2022-09-03T11:46:05.836Z,99848.94
2022-09-03T11:48:41.090Z,99860.09
2022-09-03T11:51:32.258Z,99841.22
2022-09-03T11:54:03.904Z,99843.81
2022-09-03T11:56:33.778Z,99840.13
2022-09-03T11:59:03.184Z,99840.81
2022-09-03T12:01:32.032Z,99841.75
2022-09-03T12:04:04.892Z,99833.97
2022-09-03T12:06:52.012Z,99829.78
2022-09-03T12:09:22.340Z,99830.41
2022-09-03T12:12:24.053Z,99821.28
2022-09-03T12:15:11.756Z,99821.28
2022-09-03T12:17:50.096Z,99827.88
2022-09-03T12:20:23.711Z,99818.22
2022-09-03T12:22:51.112Z,99826.06
2022-09-03T12:25:18.044Z,99825.03
2022-09-03T12:27:46.718Z,99824.63
2022-09-03T12:30:18.313Z,99820.31
2022-09-03T12:32:47.686Z,99819.44
2022-09-03T12:38:09.305Z,99812.88
2022-09-03T12:43:39.369Z,99809.59
2022-09-03T12:46:14.152Z,99804.06
2022-09-03T12:48:47.377Z,99808.38
2022-09-03T12:54:03.631Z,99804.78
2022-09-03T12:56:32.651Z,99800.59
2022-09-03T12:59:05.056Z,99795.34
2022-09-03T13:01:40.727Z,99796.63
2022-09-03T13:04:14.654Z,99795.00
2022-09-03T13:07:17.083Z,99797.78
2022-09-03T13:09:46.727Z,99793.44
2022-09-03T13:12:33.354Z,99786.16
2022-09-03T13:15:09.280Z,99787.72
2022-09-03T13:17:53.879Z,99795.78
2022-09-03T13:20:34.140Z,99791.63
2022-09-03T13:23:27.244Z,99785.63
2022-09-03T13:25:54.322Z,99780.56
2022-09-03T13:28:33.602Z,99782.69
2022-09-03T13:31:10.838Z,99783.97
2022-09-03T13:33:41.299Z,99779.91
2022-09-03T13:36:11.314Z,99784.59
2022-09-03T13:38:44.479Z,99774.88
2022-09-03T13:41:22.942Z,99783.59
2022-09-03T13:44:07.954Z,99780.59
2022-09-03T13:46:48.077Z,99769.59
2022-09-03T13:49:36.735Z,99778.13
2022-09-03T13:52:07.932Z,99774.13
2022-09-03T13:54:48.594Z,99777.44
2022-09-03T13:57:22.487Z,99769.38
2022-09-03T13:59:59.397Z,99771.78
2022-09-03T14:02:32.567Z,99767.94
2022-09-03T14:05:20.201Z,99765.59
2022-09-03T14:07:52.639Z,99763.38
2022-09-03T14:10:22.441Z,99762.84
2022-09-03T14:12:55.833Z,99769.25
2022-09-03T14:15:29.593Z,99764.88
2022-09-03T14:18:02.937Z,99764.75
2022-09-03T14:20:29.995Z,99763.91
2022-09-03T14:23:03.325Z,99768.28
2022-09-03T14:25:30.223Z,99763.16
2022-09-03T14:28:22.823Z,99762.38
2022-09-03T14:30:55.943Z,99758.84
2022-09-03T14:33:29.326Z,99763.19
2022-09-03T14:36:00.814Z,99757.94
2022-09-03T14:38:36.845Z,99748.50
2022-09-03T14:41:29.128Z,99747.03
2022-09-03T14:44:14.604Z,99752.56
2022-09-03T14:46:47.735Z,99753.63
2022-09-03T14:49:27.422Z,99752.72
2022-09-03T14:52:13.079Z,99744.72
2022-09-03T14:55:05.572Z,99748.13
2022-09-03T14:57:51.036Z,99742.66
2022-09-03T15:00:22.125Z,99746.94
2022-09-03T15:03:04.403Z,99756.56
2022-09-03T15:05:37.774Z,99762.63
2022-09-03T15:08:33.849Z,99766.91
2022-09-03T15:11:02.537Z,99755.97
2022-09-03T15:13:32.661Z,99758.38
2022-09-03T15:16:01.453Z,99758.44
2022-09-03T15:18:38.207Z,99750.72
2022-09-03T15:21:28.196Z,99751.88
2022-09-03T15:24:01.734Z,99745.16
2022-09-03T15:26:47.188Z,99745.47
2022-09-03T15:29:27.265Z,99745.84
2022-09-03T15:32:00.136Z,99741.84
2022-09-03T15:34:43.720Z,99745.78
2022-09-03T15:37:13.673Z,99733.84
2022-09-03T15:39:44.342Z,99734.19
2022-09-03T15:42:18.532Z,99746.88
2022-09-03T15:44:50.850Z,99745.56
2022-09-03T15:47:35.279Z,99740.81
2022-09-03T15:50:33.536Z,99744.88
2022-09-03T15:53:00.578Z,99736.53
2022-09-03T15:55:37.237Z,99741.31
2022-09-03T15:58:24.459Z,99746.09
2022-09-03T16:00:54.759Z,99741.25
2022-09-03T16:03:46.976Z,99753.81
2022-09-03T16:06:25.472Z,99756.81
2022-09-03T16:08:52.407Z,99753.53
2022-09-03T16:11:30.724Z,99753.75
2022-09-03T16:14:22.029Z,99750.47
2022-09-03T16:16:52.480Z,99755.03
2022-09-03T16:19:28.678Z,99756.06
2022-09-03T16:21:55.778Z,99756.22
2022-09-03T16:24:26.398Z,99746.72
2022-09-03T16:27:16.352Z,99757.31
2022-09-03T16:29:54.253Z,99753.91
2022-09-03T16:32:33.306Z,99762.72
2022-09-03T16:35:26.656Z,99759.28
2022-09-03T16:38:08.931Z,99759.38
2022-09-03T16:40:54.771Z,99766.41
2022-09-03T16:43:40.666Z,99768.19
2022-09-03T16:46:17.687Z,99763.88
2022-09-03T16:48:59.274Z,99765.69
2022-09-03T16:51:43.577Z,99773.59
2022-09-03T16:54:29.343Z,99775.38
2022-09-03T16:57:08.288Z,99765.78
2022-09-03T16:59:41.361Z,99758.81
2022-09-03T17:02:39.403Z,99769.25
2022-09-03T17:05:04.123Z,99769.22
2022-09-03T17:07:43.553Z,99760.50
2022-09-03T17:10:18.102Z,99763.97
2022-09-03T17:13:05.426Z,99767.47
2022-09-03T17:15:41.562Z,99766.59
2022-09-03T17:18:09.003Z,99769.22
2022-09-03T17:20:35.909Z,99769.22
2022-09-03T17:23:06.287Z,99770.91
2022-09-03T17:25:37.198Z,99770.00
2022-09-03T17:28:39.659Z,99766.47
2022-09-03T17:31:16.173Z,99769.88
2022-09-03T17:33:45.860Z,99767.16
2022-09-03T17:36:15.604Z,99759.22
2022-09-03T17:38:48.057Z,99767.00
2022-09-03T17:41:28.273Z,99764.31
2022-09-03T17:44:16.781Z,99772.09
2022-09-03T17:46:54.581Z,99786.03
2022-09-03T17:49:26.518Z,99791.22
2022-09-03T17:52:07.332Z,99794.63
2022-09-03T17:54:43.145Z,99785.78
2022-09-03T17:57:13.369Z,99790.97
2022-09-03T17:59:56.406Z,99798.81
2022-09-03T18:02:33.194Z,99798.75
2022-09-03T18:05:00.676Z,99792.59
2022-09-03T18:07:30.366Z,99796.06
2022-09-03T18:10:06.849Z,99796.06
2022-09-03T18:12:59.770Z,99798.69
2022-09-03T18:16:01.003Z,99794.34
2022-09-03T18:18:29.464Z,99793.50
2022-09-03T18:21:25.193Z,99790.03
2022-09-03T18:24:30.774Z,99786.66
2022-09-03T18:27:18.467Z,99788.59
2022-09-03T18:30:07.531Z,99784.41
2022-09-03T18:32:53.170Z,99782.78
2022-09-03T18:35:38.757Z,99770.66
2022-09-03T18:38:24.260Z,99775.16
2022-09-03T18:41:28.492Z,99771.75
2022-09-03T18:44:40.431Z,99775.38
2022-09-03T18:50:54.844Z,99771.16
2022-09-03T18:53:53.761Z,99765.06
2022-09-03T18:56:58.155Z,99772.09
2022-09-03T18:59:46.859Z,99766.06
2022-09-03T19:02:44.663Z,99764.31
2022-09-03T19:05:30.624Z,99766.09
2022-09-03T19:08:21.635Z,99756.47
2022-09-03T19:11:21.963Z,99755.56
2022-09-03T19:14:07.552Z,99757.28
2022-09-03T19:17:02.955Z,99758.97
2022-09-03T19:20:07.469Z,99752.81
2022-09-03T19:23:00.181Z,99755.44
2022-09-03T19:25:47.143Z,99745.81
2022-09-03T19:28:45.135Z,99746.66
2022-09-03T19:31:36.903Z,99747.53
2022-09-03T19:34:36.116Z,99737.03
2022-09-03T19:38:00.288Z,99744.91
2022-09-03T19:40:48.936Z,99737.88
2022-09-03T19:43:46.640Z,99739.63
2022-09-03T19:46:52.588Z,99742.25
2022-09-03T19:49:51.524Z,99745.72
2022-09-03T19:52:46.432Z,99736.97
2022-09-03T19:55:35.281Z,99745.66
2022-09-03T19:58:42.007Z,99753.50
2022-09-03T20:01:27.473Z,99752.59
2022-09-03T20:04:15.303Z,99754.31
2022-09-03T20:07:01.142Z,99755.13
2022-09-03T20:09:48.190Z,99758.59
2022-09-03T20:12:17.649Z,99759.44
2022-09-03T20:14:44.537Z,99755.03
2022-09-03T20:17:14.326Z,99754.13
2022-09-03T20:19:54.608Z,99753.22
2022-09-03T20:22:33.771Z,99757.56
2022-09-03T20:25:26.888Z,99749.66
2022-09-03T20:28:02.932Z,99747.91
2022-09-03T20:30:43.447Z,99749.63
2022-09-03T20:33:11.087Z,99760.06
2022-09-03T20:35:41.184Z,99756.56
2022-09-03T20:38:23.693Z,99747.78
2022-09-03T20:41:00.119Z,99756.56
2022-09-03T20:43:30.088Z,99753.94
2022-09-03T20:46:15.941Z,99747.84
2022-09-03T20:49:03.983Z,99750.47
2022-09-03T20:51:46.225Z,99745.22
2022-09-03T20:54:31.790Z,99742.63
2022-09-03T20:57:01.829Z,99747.00
2022-09-03T20:59:48.570Z,99747.91
2022-09-03T21:02:18.803Z,99749.66
2022-09-03T21:04:52.005Z,99747.06
2022-09-03T21:07:40.078Z,99746.22
2022-09-03T21:10:22.549Z,99741.88
2022-09-03T21:12:59.800Z,99744.50
2022-09-03T21:15:32.726Z,99748.00
2022-09-03T21:18:24.280Z,99746.28
2022-09-03T21:21:14.527Z,99748.06
2022-09-03T21:23:44.282Z,99744.59
2022-09-03T21:26:15.326Z,99750.72
2022-09-03T21:28:45.901Z,99749.00
2022-09-03T21:31:19.890Z,99751.63
2022-09-03T21:33:50.175Z,99756.03
2022-09-03T21:36:26.068Z,99756.03
2022-09-03T21:38:56.667Z,99761.25
2022-09-03T21:41:34.860Z,99758.63
2022-09-03T21:44:06.539Z,99761.31
2022-09-03T21:46:59.832Z,99761.34
2022-09-03T21:49:31.187Z,99758.72
2022-09-03T21:52:01.425Z,99756.16
2022-09-03T21:54:30.189Z,99754.41
2022-09-03T21:57:13.305Z,99758.81
2022-09-03T21:59:52.334Z,99760.53
2022-09-03T22:02:24.542Z,99761.38
2022-09-03T22:04:52.129Z,99767.50
2022-09-03T22:07:22.240Z,99759.66
2022-09-03T22:09:58.925Z,99769.25
2022-09-03T22:12:25.821Z,99769.25
2022-09-03T22:14:54.120Z,99770.13
2022-09-03T22:17:43.995Z,99768.44
2022-09-03T22:20:14.653Z,99769.41
2022-09-03T22:22:44.123Z,99772.94
2022-09-03T22:25:11.227Z,99772.97
2022-09-03T22:27:38.162Z,99776.53
2022-09-03T22:30:11.463Z,99777.44
2022-09-03T22:33:00.319Z,99780.97
2022-09-03T22:35:42.608Z,99780.97
2022-09-03T22:38:12.912Z,99786.25
2022-09-03T22:40:49.103Z,99785.38
2022-09-03T22:43:35.453Z,99774.03
2022-09-03T22:46:05.525Z,99777.53
2022-09-03T22:48:32.520Z,99774.94
2022-09-03T22:51:00.627Z,99775.78
2022-09-03T22:53:39.425Z,99775.75
2022-09-03T22:56:06.775Z,99771.38
2022-09-03T22:58:39.903Z,99767.06
2022-09-03T23:01:12.934Z,99773.97
2022-09-03T23:03:54.107Z,99776.56
2022-09-03T23:06:25.620Z,99790.47
2022-09-03T23:08:57.165Z,99782.59
2022-09-03T23:11:43.974Z,99783.41
2022-09-03T23:14:18.779Z,99780.78
2022-09-03T23:16:54.967Z,99787.72
2022-09-03T23:19:41.102Z,99778.97
2022-09-03T23:22:12.512Z,99795.44
2022-09-03T23:24:45.227Z,99791.91
2022-09-03T23:27:18.111Z,99788.38
2022-09-03T23:29:48.487Z,99797.06
2022-09-03T23:32:15.499Z,99792.66
2022-09-03T23:34:42.369Z,99792.66
2022-09-03T23:37:33.867Z,99787.38
2022-09-03T23:40:01.861Z,99785.56
2022-09-03T23:42:42.504Z,99786.44
2022-09-03T23:45:15.603Z,99791.63
2022-09-03T23:47:47.719Z,99797.69
2022-09-03T23:50:14.552Z,99798.50
2022-09-03T23:52:52.589Z,99801.97
2022-09-03T23:55:40.390Z,99798.44
2022-09-03T23:58:15.879Z,99804.50
